Storm Events Database

Event Details

Event Thunderstorm Wind
Magnitude 50 kts.
State TENNESSEE
County/Area DEKALB
WFO OHX
Report Source Law Enforcement
NCDC Data Source CSV
Begin Date 2008-02-06 04:00:00.0 CST-6
Begin Location 0N SMITHVILLE
Begin Lat/Lon 35.97/-85.85
End Date 2008-02-06 04:00:00.0 CST-6
Deaths Direct/Indirect 0/0 (fatality details below, when available...)
Injuries Direct/Indirect 0/0
Property Damage 3.00K
Crop Damage 0.00K
Episode Narrative The Super Severe Weather Outbreak on Feb. 5, 2008 produced supercelluar thunderstorms, well in advance of a multicell line of thunderstorms. The whole episode lasted about 6 hours. This occurred ironically while many states, including Tennessee, were participating in the Super Tuesday Primary Election. Fortunately, polls had already closed in the mid state when these tornadoes struck.
Event Narrative Trees were down.


     ‚Äč



All events for this episode:

Location County/Zone St. Date Time T.Z. Type Mag Dth Inj PrD CrD
Totals: 22 76 36.206M 1.000M
BIG SANDY BENTON CO. TN 02/05/2008 20:05 CST-6 Tornado EF1 0 0 0.00K 0.00K
FAXON BENTON CO. TN 02/05/2008 20:07 CST-6 Tornado EF2 0 0 10.000M 0.00K
CLIFTON WAYNE CO. TN 02/05/2008 20:10 CST-6 Tornado EF1 0 0 0.00K 0.00K
SUGAR HILL PERRY CO. TN 02/05/2008 20:10 CST-6 Tornado EF1 0 0 400.00K 0.00K
BIG SANDY BENTON CO. TN 02/05/2008 20:12 CST-6 Hail 1.25 in. 0 0 0.00K 0.00K
HOHENWALD BAKER ARPT LEWIS CO. TN 02/05/2008 20:14 CST-6 Tornado EF0 0 0 500.00K 0.00K
FLAT WOOD PERRY CO. TN 02/05/2008 20:20 CST-6 Tornado EF1 0 0 0.00K 0.00K
HORNERTOWN HICKMAN CO. TN 02/05/2008 20:20 CST-6 Tornado EF1 0 0 0.00K 0.00K
DANVILLE HOUSTON CO. TN 02/05/2008 20:25 CST-6 Tornado EF2 0 0 250.00K 0.00K
CENTERVILLE HICKMAN CO. TN 02/05/2008 20:27 CST-6 Hail 0.88 in. 0 0 0.00K 0.00K
FAIRVIEW WILLIAMSON CO. TN 02/05/2008 20:30 CST-6 Hail 1.00 in. 0 0 0.00K 0.00K
WAVERLY HUMPHREYS CO. TN 02/05/2008 20:30 CST-6 Thunderstorm Wind 50 kts. EG 0 0 1.00K 0.00K
DOVER STEWART CO. TN 02/05/2008 20:40 CST-6 Thunderstorm Wind 50 kts. EG 0 0 1.00K 0.00K
PRIMM SPGS HICKMAN CO. TN 02/05/2008 20:40 CST-6 Tornado EF2 0 1 500.00K 0.00K
INDIAN MOUND STEWART CO. TN 02/05/2008 20:45 CST-6 Thunderstorm Wind 50 kts. EG 0 1 10.00K 0.00K
LAMPLEY STORE WILLIAMSON CO. TN 02/05/2008 20:46 CST-6 Tornado EF2 0 0 250.00K 0.00K
CENTERVILLE HICKMAN CO. TN 02/05/2008 21:01 CST-6 Hail 1.00 in. 0 0 0.00K 0.00K
FAIRVIEW WILLIAMSON CO. TN 02/05/2008 21:07 CST-6 Hail 1.75 in. 0 0 0.00K 0.00K
BELLE MEADE DAVIDSON CO. TN 02/05/2008 21:22 CST-6 Hail 1.75 in. 0 0 0.00K 0.00K
NASHVILLE DAVIDSON CO. TN 02/05/2008 21:25 CST-6 Hail 0.88 in. 0 0 0.00K 0.00K
DICKSON DICKSON CO. TN 02/05/2008 21:32 CST-6 Thunderstorm Wind 50 kts. EG 0 0 0.50K 0.00K
(BNA)NASHVILLE METRO DAVIDSON CO. TN 02/05/2008 21:35 CST-6 Thunderstorm Wind 50 kts. EG 0 0 1.00K 0.00K
(BNA)NASHVILLE METRO DAVIDSON CO. TN 02/05/2008 21:40 CST-6 Hail 2.00 in. 0 0 0.00K 0.00K
MADISON DAVIDSON CO. TN 02/05/2008 21:40 CST-6 Hail 1.75 in. 0 0 0.00K 0.00K
CLARKSVILLE MONTGOMERY CO. TN 02/05/2008 21:43 CST-6 Thunderstorm Wind 70 kts. EG 0 0 100.00K 0.00K
HENDERSONVILLE SUMNER CO. TN 02/05/2008 21:45 CST-6 Hail 0.88 in. 0 0 0.00K 0.00K
GALLATIN SUMNER CO. TN 02/05/2008 21:46 CST-6 Hail 1.00 in. 0 0 0.00K 0.00K
GALLATIN SUMNER CO. TN 02/05/2008 21:47 CST-6 Hail 1.00 in. 0 0 0.00K 0.00K
GALLATIN SUMNER CO. TN 02/05/2008 21:49 CST-6 Hail 1.00 in. 0 0 0.00K 0.00K
GALLATIN SUMNER CO. TN 02/05/2008 21:58 CST-6 Thunderstorm Wind 70 kts. EG 0 0 50.00K 0.00K
CAIRO SUMNER CO. TN 02/05/2008 22:00 CST-6 Thunderstorm Wind 60 kts. EG 0 0 5.00K 0.00K
CASTALIAN SPGS SUMNER CO. TN 02/05/2008 22:02 CST-6 Tornado EF3 7 14 10.000M 0.00K
PAYNES STORE TROUSDALE CO. TN 02/05/2008 22:07 CST-6 Tornado EF2 2 5 1.00K 0.00K
LAFAYETTE MACON CO. TN 02/05/2008 22:12 CST-6 Hail 1.00 in. 0 0 0.00K 0.00K
GREEN GROVE MACON CO. TN 02/05/2008 22:15 CST-6 Tornado EF3 13 44 14.100M 1.000M
LAFAYETTE MACON CO. TN 02/05/2008 22:20 CST-6 Hail 2.00 in. 0 0 0.00K 0.00K
LOBELVILLE PERRY CO. TN 02/05/2008 23:41 CST-6 Tornado EF0 0 0 0.00K 0.00K
ONLY HICKMAN CO. TN 02/05/2008 23:51 CST-6 Tornado EF0 0 0 0.00K 0.00K
DICKSON DICKSON CO. TN 02/06/2008 00:11 CST-6 Hail 1.00 in. 0 0 0.00K 0.00K
TIDWELL DICKSON CO. TN 02/06/2008 00:32 CST-6 Tornado EF0 0 0 0.00K 0.00K
SCOTTSBORO DAVIDSON CO. TN 02/06/2008 00:44 CST-6 Tornado EF0 0 0 0.00K 0.00K
MILLERSVILLE SUMNER CO. TN 02/06/2008 01:12 CST-6 Tornado EF0 0 0 0.00K 0.00K
LIBERTY SUMNER CO. TN 02/06/2008 01:22 CST-6 Tornado EF1 0 0 0.00K 0.00K
KINGFIELD WILLIAMSON CO. TN 02/06/2008 01:45 CST-6 Tornado EF0 0 0 0.00K 0.00K
FLAT ROCK SMITH CO. TN 02/06/2008 03:15 CST-6 Thunderstorm Wind 50 kts. EG 0 11 5.00K 0.00K
PLEASANT SHADE SMITH CO. TN 02/06/2008 03:25 CST-6 Thunderstorm Wind 55 kts. EG 0 0 2.00K 0.00K
WOODBURY CANNON CO. TN 02/06/2008 03:50 CST-6 Thunderstorm Wind 50 kts. EG 0 0 3.00K 0.00K
SMITHVILLE DEKALB CO. TN 02/06/2008 04:00 CST-6 Thunderstorm Wind 50 kts. EG 0 0 3.00K 0.00K
MANCHESTER COFFEE CO. TN 02/06/2008 04:03 CST-6 Thunderstorm Wind 50 kts. EG 0 0 3.00K 0.00K
COOKEVILLE PUTNAM CO. TN 02/06/2008 04:13 CST-6 Thunderstorm Wind 60 kts. EG 0 0 20.00K 0.00K
Totals: 22 76 36.206M 1.000M